createdAt,value
2023-03-05T00:01:42.217Z,6.13
2023-03-05T00:04:14.755Z,6.01
2023-03-05T00:06:43.069Z,6.05
2023-03-05T00:09:12.466Z,6.16
2023-03-05T00:11:40.623Z,6.14
2023-03-05T00:14:08.862Z,6.19
2023-03-05T00:16:36.930Z,6.23
2023-03-05T00:19:05.573Z,6.19
2023-03-05T00:21:35.660Z,6.17
2023-03-05T00:24:06.006Z,6.12
2023-03-05T00:26:39.039Z,6.13
2023-03-05T00:29:09.317Z,6.00
2023-03-05T00:31:39.391Z,5.94
2023-03-05T00:34:09.432Z,5.98
2023-03-05T00:36:40.978Z,5.81
2023-03-05T00:39:08.942Z,5.78
2023-03-05T00:41:38.331Z,5.80
2023-03-05T00:44:10.083Z,5.74
2023-03-05T00:46:38.152Z,5.71
2023-03-05T00:49:06.349Z,5.66
2023-03-05T00:51:35.134Z,5.67
2023-03-05T00:54:03.299Z,5.70
2023-03-05T00:56:31.258Z,5.54
2023-03-05T00:59:00.645Z,5.59
2023-03-05T01:01:29.374Z,5.63
2023-03-05T01:03:58.208Z,5.61
2023-03-05T01:06:26.722Z,5.49
2023-03-05T01:08:54.622Z,5.48
2023-03-05T01:11:22.560Z,5.44
2023-03-05T01:13:50.536Z,5.54
2023-03-05T01:16:19.996Z,5.45
2023-03-05T01:18:48.173Z,5.47
2023-03-05T01:21:16.086Z,5.52
2023-03-05T01:23:44.012Z,5.60
2023-03-05T01:26:11.926Z,5.47
2023-03-05T01:28:40.770Z,5.50
2023-03-05T01:31:09.969Z,5.59
2023-03-05T01:33:39.270Z,5.54
2023-03-05T01:36:13.632Z,5.53
2023-03-05T01:38:41.736Z,5.49
2023-03-05T01:41:10.299Z,5.41
2023-03-05T01:43:38.937Z,5.39
2023-03-05T01:46:38.142Z,5.38
2023-03-05T01:49:24.169Z,5.41
2023-03-05T01:52:02.344Z,5.33
2023-03-05T01:54:34.934Z,5.31
2023-03-05T01:57:07.592Z,5.34
2023-03-05T01:59:35.890Z,5.31
2023-03-05T02:02:04.051Z,5.46
2023-03-05T02:04:42.459Z,5.37
2023-03-05T02:07:11.993Z,5.41
2023-03-05T02:09:40.888Z,5.40
2023-03-05T02:12:11.405Z,5.40
2023-03-05T02:14:40.229Z,5.28
2023-03-05T02:17:08.958Z,5.33
2023-03-05T02:19:49.805Z,5.31
2023-03-05T02:22:21.387Z,5.17
2023-03-05T02:24:49.913Z,5.20
2023-03-05T02:27:18.096Z,5.17
2023-03-05T02:29:47.683Z,5.20
2023-03-05T02:32:15.933Z,5.22
2023-03-05T02:34:44.420Z,5.32
2023-03-05T02:37:12.309Z,5.20
2023-03-05T02:39:41.788Z,5.14
2023-03-05T02:42:09.995Z,5.27
2023-03-05T02:44:37.988Z,5.36
2023-03-05T02:47:06.906Z,5.32
2023-03-05T02:49:34.894Z,5.27
2023-03-05T02:52:02.781Z,5.29
2023-03-05T02:54:30.643Z,5.28
2023-03-05T02:57:00.051Z,5.22
2023-03-05T02:59:28.026Z,5.13
2023-03-05T03:01:55.970Z,5.22
2023-03-05T03:04:23.905Z,5.28
2023-03-05T03:06:51.680Z,5.37
2023-03-05T03:09:19.734Z,5.40
2023-03-05T03:11:47.636Z,5.29
2023-03-05T03:14:16.870Z,5.31
2023-03-05T03:16:44.957Z,5.24
2023-03-05T03:19:13.040Z,5.32
2023-03-05T03:21:41.515Z,5.23
2023-03-05T03:24:09.468Z,5.22
2023-03-05T03:26:40.105Z,5.31
2023-03-05T03:29:08.145Z,5.26
2023-03-05T03:31:40.225Z,5.27
2023-03-05T03:34:08.379Z,5.26
2023-03-05T03:36:36.548Z,5.13
2023-03-05T03:39:06.008Z,5.18
2023-03-05T03:41:34.399Z,5.18
2023-03-05T03:44:03.149Z,5.15
2023-03-05T03:46:31.214Z,5.22
2023-03-05T03:49:00.445Z,5.02
2023-03-05T03:51:28.638Z,5.01
2023-03-05T03:53:57.079Z,4.99
2023-03-05T03:56:24.939Z,4.92
2023-03-05T03:58:54.016Z,4.73
2023-03-05T04:01:22.938Z,4.57
2023-03-05T04:03:50.828Z,4.56
2023-03-05T04:06:20.101Z,4.69
2023-03-05T04:08:48.155Z,4.77
2023-03-05T04:11:16.165Z,4.74
2023-03-05T04:13:47.424Z,4.86
2023-03-05T04:16:15.795Z,4.91
2023-03-05T04:18:44.509Z,4.92
2023-03-05T04:21:12.858Z,4.93
2023-03-05T04:23:42.507Z,4.92
2023-03-05T04:26:10.485Z,4.85
2023-03-05T04:28:38.559Z,4.93
2023-03-05T04:31:07.180Z,4.99
2023-03-05T04:33:35.151Z,5.09
2023-03-05T04:36:03.216Z,5.11
2023-03-05T04:38:31.161Z,5.15
2023-03-05T04:41:00.397Z,5.01
2023-03-05T04:43:43.707Z,5.02
2023-03-05T04:46:11.691Z,4.99
2023-03-05T04:48:39.584Z,4.95
2023-03-05T04:51:07.529Z,4.96
2023-03-05T04:53:36.155Z,5.00
2023-03-05T04:56:06.031Z,5.09
2023-03-05T04:58:33.906Z,5.16
2023-03-05T05:01:03.573Z,5.10
2023-03-05T05:03:31.768Z,5.11
2023-03-05T05:06:01.157Z,5.19
2023-03-05T05:08:29.876Z,5.23
2023-03-05T05:10:59.292Z,5.16
2023-03-05T05:13:29.076Z,5.12
2023-03-05T05:15:57.198Z,5.21
2023-03-05T05:18:25.891Z,5.28
2023-03-05T05:20:54.013Z,5.21
2023-03-05T05:23:21.918Z,5.22
2023-03-05T05:25:58.789Z,5.21
2023-03-05T05:28:28.891Z,5.12
2023-03-05T05:30:56.829Z,5.16
2023-03-05T05:33:25.285Z,5.23
2023-03-05T05:35:53.699Z,5.18
2023-03-05T05:38:21.596Z,5.24
2023-03-05T05:40:49.737Z,5.29
2023-03-05T05:43:17.581Z,5.23
2023-03-05T05:45:47.084Z,5.28
2023-03-05T05:48:15.331Z,5.26
2023-03-05T05:50:43.161Z,5.22
2023-03-05T05:53:11.044Z,5.18
2023-03-05T05:55:41.338Z,5.18
2023-03-05T05:58:09.214Z,5.20
2023-03-05T06:00:37.176Z,5.22
2023-03-05T06:03:06.674Z,5.16
2023-03-05T06:05:34.588Z,5.17
2023-03-05T06:08:02.635Z,5.16
2023-03-05T06:10:30.739Z,5.26
2023-03-05T06:12:58.578Z,5.32
2023-03-05T06:15:26.576Z,5.38
2023-03-05T06:17:54.833Z,5.22
2023-03-05T06:20:24.292Z,5.29
2023-03-05T06:22:52.180Z,5.26
2023-03-05T06:25:20.393Z,5.28
2023-03-05T06:27:48.325Z,5.34
2023-03-05T06:30:16.399Z,5.34
2023-03-05T06:32:44.366Z,5.37
2023-03-05T06:35:12.393Z,5.40
2023-03-05T06:37:41.690Z,5.17
2023-03-05T06:40:11.209Z,5.19
2023-03-05T06:42:39.216Z,5.18
2023-03-05T06:45:08.509Z,5.22
2023-03-05T06:47:36.506Z,5.27
2023-03-05T06:50:04.880Z,5.23
2023-03-05T06:52:32.791Z,5.14
2023-03-05T06:55:02.190Z,5.16
2023-03-05T06:57:30.102Z,5.21
2023-03-05T06:59:58.348Z,5.30
2023-03-05T07:02:26.705Z,5.29
2023-03-05T07:04:54.606Z,5.43
2023-03-05T07:07:22.475Z,5.46
2023-03-05T07:09:53.130Z,5.52
2023-03-05T07:12:22.399Z,5.59
2023-03-05T07:14:50.276Z,5.73
2023-03-05T07:17:18.493Z,5.78
2023-03-05T07:19:46.472Z,5.84
2023-03-05T07:22:14.419Z,5.85
2023-03-05T07:24:42.353Z,6.00
2023-03-05T07:27:10.245Z,6.13
2023-03-05T07:29:39.664Z,6.09
2023-03-05T07:32:07.893Z,6.14
2023-03-05T07:34:35.953Z,6.08
2023-03-05T07:37:03.840Z,6.01
2023-03-05T07:39:31.902Z,6.01
2023-03-05T07:41:59.938Z,6.03
2023-03-05T07:44:27.883Z,6.09
2023-03-05T07:46:57.491Z,6.08
2023-03-05T07:49:25.484Z,6.15
2023-03-05T07:51:53.396Z,6.21
2023-03-05T07:54:21.504Z,6.19
2023-03-05T07:56:49.413Z,6.15
2023-03-05T07:59:17.354Z,6.00
2023-03-05T08:01:46.477Z,6.14
2023-03-05T08:04:15.731Z,6.14
2023-03-05T08:06:43.672Z,6.25
2023-03-05T08:09:11.647Z,6.27
2023-03-05T08:11:40.643Z,6.18
2023-03-05T08:14:08.922Z,6.41
2023-03-05T08:16:37.092Z,6.53
2023-03-05T08:19:04.984Z,6.63
2023-03-05T08:21:36.087Z,6.80
2023-03-05T08:24:05.765Z,6.87
2023-03-05T08:26:35.549Z,7.03
2023-03-05T08:29:03.842Z,6.99
2023-03-05T08:31:33.158Z,6.79
2023-03-05T08:34:02.908Z,6.84
2023-03-05T08:36:31.164Z,6.71
2023-03-05T08:39:00.951Z,6.82
2023-03-05T08:41:28.907Z,6.90
2023-03-05T08:43:56.894Z,6.97
2023-03-05T08:46:25.146Z,6.89
2023-03-05T08:48:53.218Z,7.12
2023-03-05T08:51:25.514Z,7.39
2023-03-05T08:53:54.785Z,7.50
2023-03-05T08:56:25.425Z,7.34
2023-03-05T08:58:53.405Z,7.18
2023-03-05T09:01:22.683Z,7.35
2023-03-05T09:03:50.941Z,7.43
2023-03-05T09:06:18.875Z,7.32
2023-03-05T09:08:46.733Z,7.48
2023-03-05T09:11:15.252Z,7.60
2023-03-05T09:13:45.674Z,7.68
2023-03-05T09:16:16.300Z,7.52
2023-03-05T09:18:45.013Z,7.50
2023-03-05T09:21:14.763Z,7.36
2023-03-05T09:23:43.536Z,7.60
2023-03-05T09:26:13.244Z,7.50
2023-03-05T09:28:41.755Z,7.40
2023-03-05T09:31:11.745Z,7.40
2023-03-05T09:33:40.769Z,7.65
2023-03-05T09:36:19.904Z,7.86
2023-03-05T09:38:48.022Z,8.17
2023-03-05T09:41:23.159Z,8.19
2023-03-05T09:44:01.173Z,8.29
2023-03-05T09:46:42.884Z,8.01
2023-03-05T09:49:19.440Z,7.67
2023-03-05T09:51:51.903Z,7.59
2023-03-05T09:54:22.728Z,7.38
2023-03-05T09:56:57.171Z,7.11
2023-03-05T09:59:32.843Z,7.24
2023-03-05T10:02:12.342Z,7.21
2023-03-05T10:04:46.198Z,7.12
2023-03-05T10:07:19.692Z,7.04
2023-03-05T10:09:55.810Z,7.07
2023-03-05T10:12:29.103Z,7.04
2023-03-05T10:14:57.303Z,7.13
2023-03-05T10:18:02.243Z,7.22
2023-03-05T10:20:56.724Z,7.10
2023-03-05T10:23:33.068Z,6.84
2023-03-05T10:26:11.169Z,6.99
2023-03-05T10:28:49.496Z,7.27
2023-03-05T10:31:33.990Z,6.85
2023-03-05T10:34:44.309Z,6.79
2023-03-05T10:37:29.256Z,6.69
2023-03-05T10:40:09.877Z,6.62
2023-03-05T10:42:48.395Z,6.68
2023-03-05T10:45:20.054Z,6.82
2023-03-05T10:47:53.383Z,7.28
2023-03-05T10:50:26.867Z,7.75
2023-03-05T10:53:11.642Z,7.85
2023-03-05T10:55:39.980Z,8.08
2023-03-05T10:58:12.878Z,8.53
2023-03-05T11:00:41.937Z,8.85
2023-03-05T11:03:15.644Z,8.90
2023-03-05T11:05:50.079Z,8.76
2023-03-05T11:08:33.493Z,8.73
2023-03-05T11:11:07.288Z,8.63
2023-03-05T11:13:38.587Z,8.45
2023-03-05T11:16:14.965Z,8.45
2023-03-05T11:18:43.022Z,8.63
2023-03-05T11:21:19.755Z,8.60
2023-03-05T11:24:18.353Z,8.42
2023-03-05T11:27:38.280Z,8.15
2023-03-05T11:31:13.443Z,8.07
2023-03-05T11:33:41.747Z,8.04
2023-03-05T11:36:24.486Z,8.30
2023-03-05T11:41:41.163Z,8.52
2023-03-05T11:44:14.897Z,8.34
2023-03-05T11:46:47.462Z,7.99
2023-03-05T11:49:19.694Z,7.76
2023-03-05T11:51:59.940Z,7.97
2023-03-05T11:54:35.352Z,7.71
2023-03-05T11:57:05.233Z,7.71
2023-03-05T11:59:37.259Z,7.60
2023-03-05T12:02:16.676Z,7.22
2023-03-05T12:04:49.994Z,7.32
2023-03-05T12:07:23.834Z,7.31
2023-03-05T12:09:53.641Z,7.27
2023-03-05T12:12:37.873Z,7.51
2023-03-05T12:15:26.893Z,7.72
2023-03-05T12:18:04.902Z,7.94
2023-03-05T12:21:14.101Z,8.20
2023-03-05T12:24:20.300Z,8.42
2023-03-05T12:27:02.576Z,8.40
2023-03-05T12:29:57.221Z,8.60
2023-03-05T12:33:12.781Z,8.46
2023-03-05T12:38:58.884Z,8.56
2023-03-05T12:42:05.528Z,8.42
2023-03-05T12:44:45.339Z,8.40
2023-03-05T12:47:25.980Z,8.39
2023-03-05T12:49:54.477Z,8.44
2023-03-05T12:52:47.437Z,8.31
2023-03-05T12:55:26.039Z,8.22
2023-03-05T13:05:38.094Z,8.30
2023-03-05T13:08:55.159Z,8.14
2023-03-05T13:14:45.467Z,8.08
2023-03-05T13:22:05.602Z,7.86
2023-03-05T13:32:33.253Z,7.88
2023-03-05T13:49:22.390Z,8.48
2023-03-05T13:51:56.631Z,8.60
2023-03-05T13:56:49.462Z,8.44
2023-03-05T13:59:21.064Z,8.45
2023-03-05T14:01:48.038Z,8.29
2023-03-05T14:06:01.019Z,8.35
2023-03-05T14:09:30.642Z,8.35
2023-03-05T14:38:19.778Z,8.06
2023-03-05T14:40:49.079Z,8.02
2023-03-05T14:43:17.576Z,7.97
2023-03-05T14:45:46.788Z,8.18
2023-03-05T14:48:17.625Z,8.12
2023-03-05T14:50:47.599Z,8.05
2023-03-05T14:53:19.170Z,8.19
2023-03-05T14:55:50.928Z,8.25
2023-03-05T14:58:22.103Z,8.25
2023-03-05T15:00:51.427Z,8.06
2023-03-05T15:03:20.559Z,7.90
2023-03-05T15:05:51.698Z,7.89
2023-03-05T15:08:26.050Z,7.92
2023-03-05T15:10:58.886Z,7.87
2023-03-05T15:13:27.801Z,7.78
2023-03-05T15:15:56.208Z,7.69
2023-03-05T15:18:30.232Z,7.72
2023-03-05T15:20:58.841Z,7.68
2023-03-05T15:23:39.996Z,7.64
2023-03-05T15:26:18.284Z,7.50
2023-03-05T15:28:55.077Z,7.43
2023-03-05T15:31:33.913Z,7.45
2023-03-05T15:34:02.784Z,7.47
2023-03-05T15:36:35.740Z,7.56
2023-03-05T15:39:04.089Z,7.59
2023-03-05T15:41:34.330Z,7.51
2023-03-05T15:44:07.192Z,7.51
2023-03-05T15:46:39.302Z,7.43
2023-03-05T15:49:10.982Z,7.50
2023-03-05T15:51:39.445Z,7.38
2023-03-05T15:54:10.546Z,7.11
2023-03-05T15:56:54.092Z,7.05
2023-03-05T15:59:27.508Z,6.88
2023-03-05T16:01:59.616Z,7.03
2023-03-05T16:04:39.368Z,7.08
2023-03-05T16:07:17.951Z,7.04
2023-03-05T16:09:52.969Z,7.11
2023-03-05T16:12:27.622Z,7.10
2023-03-05T16:14:58.318Z,7.09
2023-03-05T16:17:27.035Z,7.05
2023-03-05T16:19:58.044Z,7.11
2023-03-05T16:22:29.541Z,7.17
2023-03-05T16:24:59.440Z,6.97
2023-03-05T16:27:31.584Z,6.97
2023-03-05T16:30:09.596Z,6.91
2023-03-05T16:32:40.838Z,6.95
2023-03-05T16:35:12.291Z,6.90
2023-03-05T16:37:44.008Z,6.90
2023-03-05T16:40:20.434Z,6.83
2023-03-05T16:42:53.047Z,6.74
2023-03-05T16:45:25.073Z,6.78
2023-03-05T16:47:59.951Z,6.77
2023-03-05T16:50:32.729Z,6.73
2023-03-05T16:53:17.898Z,6.58
2023-03-05T16:56:07.948Z,6.62
2023-03-05T16:58:45.728Z,6.67
2023-03-05T17:01:18.270Z,6.62
2023-03-05T17:03:46.364Z,6.60
2023-03-05T17:06:42.941Z,6.72
2023-03-05T17:09:11.144Z,6.66
2023-03-05T17:11:42.157Z,6.51
2023-03-05T17:14:14.432Z,6.43
2023-03-05T17:16:42.619Z,6.40
2023-03-05T17:19:11.233Z,6.36
2023-03-05T17:21:41.989Z,6.38
2023-03-05T17:24:11.510Z,6.31
2023-03-05T17:26:39.878Z,6.39
2023-03-05T17:29:13.637Z,6.48
2023-03-05T17:31:46.640Z,6.44
2023-03-05T17:34:35.584Z,6.46
2023-03-05T17:37:11.596Z,6.33
2023-03-05T17:39:44.681Z,6.22
2023-03-05T17:42:20.637Z,6.22
2023-03-05T17:45:09.446Z,6.21
2023-03-05T17:47:38.559Z,6.09
2023-03-05T17:50:09.249Z,6.10
2023-03-05T17:52:41.511Z,6.00
2023-03-05T17:55:14.143Z,6.06
2023-03-05T17:57:44.441Z,6.08
2023-03-05T18:00:18.922Z,6.08
2023-03-05T18:02:54.800Z,6.06
2023-03-05T18:05:25.137Z,6.10
2023-03-05T18:07:54.955Z,6.14
2023-03-05T18:10:25.706Z,6.15
2023-03-05T18:12:54.279Z,6.17
2023-03-05T18:15:25.089Z,6.15
2023-03-05T18:18:02.825Z,6.00
2023-03-05T18:20:32.782Z,6.02
2023-03-05T18:23:03.253Z,5.92
2023-03-05T18:25:32.541Z,5.82
2023-03-05T18:28:01.827Z,5.89
2023-03-05T18:30:31.689Z,5.89
2023-03-05T18:33:00.925Z,5.95
2023-03-05T18:35:30.242Z,5.89
2023-03-05T18:37:59.127Z,5.88
2023-03-05T18:40:29.398Z,5.79
2023-03-05T18:43:00.215Z,5.76
2023-03-05T18:45:28.963Z,5.64
2023-03-05T18:47:58.915Z,5.66
2023-03-05T18:50:29.731Z,5.54
2023-03-05T18:52:59.774Z,5.45
2023-03-05T18:55:30.861Z,5.38
2023-03-05T18:58:00.038Z,5.41
2023-03-05T19:00:30.483Z,5.53
2023-03-05T19:03:03.730Z,5.53
2023-03-05T19:05:32.285Z,5.43
2023-03-05T19:08:00.374Z,5.41
2023-03-05T19:10:29.190Z,5.39
2023-03-05T19:13:40.055Z,5.41
2023-03-05T19:16:11.268Z,5.50
2023-03-05T19:19:22.704Z,5.48
2023-03-05T19:21:53.933Z,5.46
2023-03-05T19:24:23.635Z,5.43
2023-03-05T19:26:56.065Z,5.44
2023-03-05T19:29:30.441Z,5.35
2023-03-05T19:31:59.065Z,5.30
2023-03-05T19:34:28.730Z,5.39
2023-03-05T19:36:56.900Z,5.36
2023-03-05T19:39:30.465Z,5.34
2023-03-05T19:41:58.580Z,5.27
2023-03-05T19:44:26.942Z,5.28
2023-03-05T19:46:55.424Z,5.32
2023-03-05T19:49:23.501Z,5.31
2023-03-05T19:51:53.729Z,5.26
2023-03-05T19:54:23.173Z,5.27
2023-03-05T19:56:54.955Z,5.23
2023-03-05T19:59:25.153Z,5.26
2023-03-05T20:01:53.656Z,5.28
2023-03-05T20:04:23.557Z,5.20
2023-03-05T20:06:55.328Z,5.19
2023-03-05T20:09:24.299Z,5.18
2023-03-05T20:11:53.340Z,5.13
2023-03-05T20:14:21.724Z,5.17
2023-03-05T20:16:52.974Z,5.20
2023-03-05T20:19:22.085Z,5.18
2023-03-05T20:21:51.075Z,5.20
2023-03-05T20:24:26.113Z,5.10
2023-03-05T20:26:55.387Z,5.16
2023-03-05T20:29:41.320Z,5.10
2023-03-05T20:32:23.253Z,5.11
2023-03-05T20:34:53.528Z,5.01
2023-03-05T20:37:58.178Z,4.96
2023-03-05T20:40:28.168Z,4.97
2023-03-05T20:42:59.860Z,4.98
2023-03-05T20:45:28.328Z,4.97
2023-03-05T20:47:59.060Z,4.93
2023-03-05T20:50:28.251Z,4.87
2023-03-05T20:52:58.894Z,4.87
2023-03-05T20:55:29.696Z,4.82
2023-03-05T20:57:58.902Z,4.79
2023-03-05T21:00:27.756Z,4.84
2023-03-05T21:02:56.641Z,4.92
2023-03-05T21:05:26.119Z,4.89
2023-03-05T21:07:55.201Z,4.89
2023-03-05T21:10:25.514Z,4.85
2023-03-05T21:13:00.774Z,4.86
2023-03-05T21:15:32.185Z,4.87
2023-03-05T21:18:00.974Z,4.88
2023-03-05T21:20:31.052Z,4.91
2023-03-05T21:23:00.618Z,4.88
2023-03-05T21:25:30.414Z,4.84
2023-03-05T21:28:02.397Z,4.83
2023-03-05T21:30:35.317Z,4.85
2023-03-05T21:33:05.380Z,4.89
2023-03-05T21:35:34.513Z,4.90
2023-03-05T21:38:04.021Z,4.82
2023-03-05T21:40:33.138Z,4.90
2023-03-05T21:43:03.196Z,4.91
2023-03-05T21:45:31.680Z,4.91
2023-03-05T21:48:00.173Z,4.89
2023-03-05T21:50:28.439Z,4.94
2023-03-05T21:52:56.848Z,4.95
2023-03-05T21:56:25.985Z,4.97
2023-03-05T21:59:01.589Z,4.78
2023-03-05T22:01:34.050Z,4.82
2023-03-05T22:04:02.702Z,4.83
2023-03-05T22:06:31.012Z,4.79
2023-03-05T22:09:13.322Z,4.72
2023-03-05T22:11:44.276Z,4.74
2023-03-05T22:14:18.086Z,4.78
2023-03-05T22:16:53.987Z,4.79
2023-03-05T22:19:22.789Z,4.87
2023-03-05T22:21:50.914Z,4.78
2023-03-05T22:24:19.069Z,4.80
2023-03-05T22:26:49.482Z,4.79
2023-03-05T22:29:19.269Z,4.79
2023-03-05T22:31:52.703Z,4.81
2023-03-05T22:34:21.487Z,4.82
2023-03-05T22:36:49.985Z,4.85
2023-03-05T22:39:18.843Z,4.69
2023-03-05T22:41:49.587Z,4.76
2023-03-05T22:44:25.210Z,4.81
2023-03-05T22:46:57.803Z,4.81
2023-03-05T22:49:26.522Z,4.88
2023-03-05T22:51:58.566Z,4.97
2023-03-05T22:54:26.753Z,4.99
2023-03-05T22:56:55.523Z,4.99
2023-03-05T22:59:26.107Z,4.97
2023-03-05T23:01:54.129Z,4.93
2023-03-05T23:04:53.398Z,5.02
2023-03-05T23:07:27.048Z,5.00
2023-03-05T23:09:58.827Z,5.02
2023-03-05T23:12:35.374Z,4.97
2023-03-05T23:15:11.582Z,4.97
2023-03-05T23:17:39.611Z,4.93
2023-03-05T23:20:11.747Z,4.95
2023-03-05T23:22:41.492Z,4.88
2023-03-05T23:25:10.580Z,4.90
2023-03-05T23:27:38.866Z,4.95
2023-03-05T23:30:19.950Z,5.00
2023-03-05T23:32:52.016Z,4.94
2023-03-05T23:35:32.604Z,4.92
2023-03-05T23:38:06.383Z,4.90
2023-03-05T23:40:59.755Z,4.95
2023-03-05T23:43:37.944Z,4.96
2023-03-05T23:46:23.172Z,4.91
2023-03-05T23:49:09.135Z,4.94
2023-03-05T23:51:40.200Z,4.94
2023-03-05T23:54:12.246Z,5.02
2023-03-05T23:56:50.284Z,5.00
2023-03-05T23:59:39.006Z,5.03
